Time;durP1;ratioP1;P1;durP2;ratioP2;P2;SDS_P1;SDS_P2;PMS_P1;PMS_P2;Temp;Humidity;BMP_temperature;BMP_pressure;BME280_temperature;BME280_humidity;BME280_pressure;Samples;Min_cycle;Max_cycle;Signal;HPM_P1;HPM_P2
2023/10/03 00:00:57;;;;;;;10.87;3.33;;;27.50;72.20;;;;;;5071143;27;88787;-56
2023/10/03 00:03:26;;;;;;;6.00;2.80;;;27.50;72.20;;;;;;5070566;27;89015;-56
2023/10/03 00:05:55;;;;;;;6.40;3.40;;;27.40;72.00;;;;;;5074024;27;88706;-56
2023/10/03 00:08:26;;;;;;;12.63;3.93;;;27.50;72.20;;;;;;5076327;27;87777;-56
2023/10/03 00:10:55;;;;;;;7.60;3.20;;;27.50;72.20;;;;;;5074877;27;89581;-56
2023/10/03 00:13:24;;;;;;;8.50;3.30;;;27.50;72.20;;;;;;5076189;27;87872;-56
2023/10/03 00:15:54;;;;;;;6.63;3.37;;;27.40;72.10;;;;;;5072710;27;88336;-56
2023/10/03 00:18:22;;;;;;;5.53;2.97;;;27.40;72.20;;;;;;5075708;27;87698;-56
2023/10/03 00:20:50;;;;;;;6.47;2.87;;;27.40;72.00;;;;;;5075605;27;89734;-56
2023/10/03 00:23:19;;;;;;;9.80;3.60;;;27.50;72.20;;;;;;5074390;27;87857;-56
2023/10/03 00:25:47;;;;;;;5.63;2.67;;;27.40;72.10;;;;;;5074069;27;88768;-56
2023/10/03 00:28:15;;;;;;;7.60;3.40;;;27.40;72.10;;;;;;5072847;27;88383;-56
2023/10/03 00:30:45;;;;;;;7.17;3.10;;;27.40;72.10;;;;;;5072948;27;89622;-55
2023/10/03 00:33:17;;;;;;;10.00;4.03;;;27.40;72.10;;;;;;5076197;27;89902;-56
2023/10/03 00:35:47;;;;;;;7.73;3.00;;;27.40;72.10;;;;;;5071560;27;88845;-56
2023/10/03 00:38:15;;;;;;;12.53;3.40;;;27.40;72.20;;;;;;5078604;27;87664;-56
2023/10/03 00:40:49;;;;;;;8.60;3.57;;;27.40;72.00;;;;;;5073919;27;88736;-56
2023/10/03 00:43:17;;;;;;;7.77;3.87;;;27.40;72.20;;;;;;5071050;27;88994;-56
2023/10/03 00:45:48;;;;;;;6.30;3.30;;;27.40;72.10;;;;;;5072993;27;87886;-56
2023/10/03 00:48:18;;;;;;;7.27;3.70;;;27.40;72.20;;;;;;5077789;27;87414;-56
2023/10/03 00:50:48;;;;;;;6.87;3.37;;;27.40;72.20;;;;;;5078537;27;88400;-56
2023/10/03 00:53:16;;;;;;;8.73;2.93;;;27.40;72.20;;;;;;5076492;27;89861;-56
2023/10/03 00:55:47;;;;;;;8.00;2.90;;;27.40;72.20;;;;;;5071273;27;88790;-56
2023/10/03 00:58:24;;;;;;;9.70;3.40;;;27.40;72.00;;;;;;5075436;27;87496;-56
2023/10/03 01:00:53;;;;;;;7.80;3.60;;;27.40;72.00;;;;;;5073538;27;88475;-56
2023/10/03 01:03:28;;;;;;;8.00;3.57;;;27.40;72.00;;;;;;5077033;27;88103;-56
2023/10/03 01:05:57;;;;;;;8.37;3.23;;;27.40;72.10;;;;;;5073639;27;87741;-56
2023/10/03 01:08:26;;;;;;;10.00;3.67;;;27.40;71.90;;;;;;5075032;27;87651;-56
2023/10/03 01:10:54;;;;;;;7.70;3.10;;;27.40;72.00;;;;;;5073569;27;87600;-56
2023/10/03 01:13:24;;;;;;;10.70;3.93;;;27.40;71.90;;;;;;5071766;27;89118;-56
2023/10/03 01:15:53;;;;;;;6.83;3.50;;;27.40;71.90;;;;;;5074976;27;88804;-56
2023/10/03 01:18:22;;;;;;;10.67;4.10;;;27.40;71.90;;;;;;5074281;27;87842;-56
2023/10/03 01:20:52;;;;;;;6.50;3.80;;;27.30;71.80;;;;;;5071442;27;88838;-56
2023/10/03 01:23:22;;;;;;;8.50;3.50;;;27.30;71.80;;;;;;5074849;27;89030;-56
2023/10/03 01:25:51;;;;;;;7.77;3.30;;;27.30;72.70;;;;;;5072298;27;87929;-56
2023/10/03 01:28:19;;;;;;;6.50;3.73;;;27.40;71.90;;;;;;5071887;27;87678;-56
2023/10/03 01:30:47;;;;;;;8.37;4.30;;;27.30;71.90;;;;;;5072619;27;87547;-56
2023/10/03 01:33:16;;;;;;;12.77;4.30;;;27.30;71.90;;;;;;5072869;27;89052;-56
2023/10/03 01:35:44;;;;;;;12.97;4.40;;;27.30;72.00;;;;;;5071974;27;87603;-56
2023/10/03 01:38:14;;;;;;;8.93;3.17;;;27.30;71.90;;;;;;5069613;27;87614;-56
2023/10/03 01:40:44;;;;;;;9.77;3.37;;;27.30;72.00;;;;;;5074977;27;88520;-56
2023/10/03 01:43:12;;;;;;;6.30;3.10;;;27.30;71.90;;;;;;5081661;27;88991;-56
2023/10/03 01:45:40;;;;;;;9.53;4.20;;;27.30;71.90;;;;;;5082352;27;88614;-56
2023/10/03 01:48:08;;;;;;;9.27;3.77;;;27.30;71.90;;;;;;5069528;27;87591;-56
2023/10/03 01:50:36;;;;;;;8.33;3.80;;;27.30;72.00;;;;;;5077598;27;88573;-56
2023/10/03 01:53:05;;;;;;;8.47;3.37;;;27.30;71.90;;;;;;5082533;27;88030;-56
2023/10/03 01:55:33;;;;;;;8.07;3.73;;;27.30;71.90;;;;;;5082206;27;87899;-56
2023/10/03 01:58:04;;;;;;;7.47;3.67;;;27.30;71.80;;;;;;5082523;27;87638;-56
2023/10/03 02:00:34;;;;;;;11.37;3.53;;;27.30;71.90;;;;;;5081845;27;88708;-56
2023/10/03 02:03:05;;;;;;;6.93;3.47;;;27.30;71.90;;;;;;5069316;27;87789;-56
2023/10/03 02:05:35;;;;;;;8.93;3.03;;;27.30;71.90;;;;;;5070573;27;88948;-56
2023/10/03 02:08:07;;;;;;;6.03;2.60;;;27.30;71.90;;;;;;5073794;27;89435;-56
2023/10/03 02:10:36;;;;;;;8.40;4.07;;;27.30;72.70;;;;;;5070644;27;88567;-56
2023/10/03 02:13:09;;;;;;;8.93;3.93;;;27.30;71.90;;;;;;5070661;27;88008;-56
2023/10/03 02:15:38;;;;;;;12.93;4.90;;;27.30;71.90;;;;;;5069662;27;88847;-56
2023/10/03 02:18:08;;;;;;;6.37;3.70;;;27.30;71.70;;;;;;5071451;27;87850;-56
2023/10/03 02:20:47;;;;;;;6.40;3.27;;;27.30;71.70;;;;;;5069071;27;88546;-56
2023/10/03 02:23:19;;;;;;;9.70;3.60;;;27.30;71.80;;;;;;5067709;27;89344;-56
2023/10/03 02:25:47;;;;;;;7.57;3.47;;;27.30;71.70;;;;;;5070106;27;88991;-56
2023/10/03 02:28:17;;;;;;;7.43;2.93;;;27.30;71.80;;;;;;5067452;27;87671;-56
2023/10/03 02:30:47;;;;;;;9.00;3.40;;;27.20;71.60;;;;;;5067934;27;88502;-55
2023/10/03 02:33:17;;;;;;;10.03;3.53;;;27.30;71.70;;;;;;5068346;27;89951;-55
2023/10/03 02:35:47;;;;;;;8.33;3.50;;;27.40;71.70;;;;;;5071433;27;89584;-56
2023/10/03 02:38:24;;;;;;;11.47;4.30;;;27.30;71.70;;;;;;5069443;27;87465;-56
2023/10/03 02:40:54;;;;;;;9.67;4.10;;;27.20;71.60;;;;;;5071906;27;89642;-56
2023/10/03 02:43:24;;;;;;;8.00;3.83;;;27.20;71.70;;;;;;5070661;27;89022;-56
2023/10/03 02:45:52;;;;;;;6.87;4.13;;;27.20;71.70;;;;;;5071143;27;87309;-56
2023/10/03 02:48:22;;;;;;;11.93;4.50;;;27.20;71.50;;;;;;5071931;27;87504;-56
2023/10/03 02:50:51;;;;;;;7.53;4.10;;;27.30;71.70;;;;;;5071005;27;89374;-56
2023/10/03 02:53:20;;;;;;;16.73;5.13;;;27.20;71.60;;;;;;5068628;27;87986;-56
2023/10/03 02:55:49;;;;;;;9.83;4.80;;;27.20;71.60;;;;;;5072395;27;87697;-56
2023/10/03 02:58:17;;;;;;;12.80;5.07;;;27.30;71.70;;;;;;5073138;27;87987;-56
2023/10/03 03:00:47;;;;;;;9.00;5.23;;;27.20;71.50;;;;;;5071294;27;88177;-56
2023/10/03 03:03:15;;;;;;;9.17;4.77;;;27.20;71.50;;;;;;5068735;27;87283;-56
2023/10/03 03:05:44;;;;;;;11.33;6.20;;;27.20;71.50;;;;;;5070497;27;87548;-56
2023/10/03 03:08:23;;;;;;;10.37;5.33;;;27.20;71.50;;;;;;5073282;27;87735;-56
2023/10/03 03:10:54;;;;;;;12.53;5.67;;;27.20;71.50;;;;;;5069238;27;88578;-56
2023/10/03 03:13:24;;;;;;;10.03;5.03;;;27.20;71.50;;;;;;5081188;27;88053;-56
2023/10/03 03:15:59;;;;;;;10.70;5.17;;;27.20;71.50;;;;;;5069333;27;88869;-56
2023/10/03 03:18:31;;;;;;;11.63;5.83;;;27.20;71.60;;;;;;5067069;27;87928;-56
2023/10/03 03:21:02;;;;;;;15.23;6.10;;;27.20;71.50;;;;;;5067846;27;88277;-56
2023/10/03 03:23:35;;;;;;;11.33;5.17;;;27.10;71.50;;;;;;5067504;27;89914;-56
2023/10/03 03:26:17;;;;;;;12.83;4.90;;;27.20;71.50;;;;;;5070448;27;88589;-56
2023/10/03 03:28:49;;;;;;;6.87;4.43;;;27.20;71.50;;;;;;5070342;27;87514;-56
2023/10/03 03:31:21;;;;;;;8.23;4.60;;;27.20;71.50;;;;;;5069443;27;88589;-56
2023/10/03 03:33:51;;;;;;;8.67;5.20;;;27.10;71.40;;;;;;5069145;27;89303;-56
2023/10/03 03:36:21;;;;;;;12.00;5.60;;;27.10;71.50;;;;;;5071180;27;87478;-56
2023/10/03 03:38:51;;;;;;;9.27;4.30;;;27.10;71.40;;;;;;5071426;27;87391;-56
2023/10/03 03:41:20;;;;;;;8.90;4.07;;;27.10;71.40;;;;;;5073883;27;89260;-56
2023/10/03 03:43:49;;;;;;;10.37;4.83;;;27.10;71.30;;;;;;5072298;27;88004;-56
2023/10/03 03:46:19;;;;;;;10.10;4.97;;;27.00;71.40;;;;;;5073694;27;87933;-56
2023/10/03 03:48:47;;;;;;;9.50;3.90;;;27.10;71.40;;;;;;5073567;27;88566;-56
2023/10/03 03:51:16;;;;;;;7.83;3.73;;;27.10;71.50;;;;;;5037571;27;89714;-56
2023/10/03 03:53:45;;;;;;;6.87;4.20;;;27.10;71.50;;;;;;5073038;27;88007;-56
2023/10/03 03:56:13;;;;;;;8.00;4.37;;;27.10;71.40;;;;;;5072339;27;87376;-56
2023/10/03 03:58:44;;;;;;;8.50;4.07;;;27.10;71.30;;;;;;5073673;27;87663;-56
2023/10/03 04:01:16;;;;;;;10.80;4.23;;;27.10;71.30;;;;;;5072814;27;89789;-56
2023/10/03 04:03:47;;;;;;;6.67;3.53;;;27.10;71.30;;;;;;5073958;27;89211;-56
2023/10/03 04:06:15;;;;;;;6.27;3.30;;;27.10;71.40;;;;;;5073987;27;88965;-55
2023/10/03 04:08:45;;;;;;;7.77;3.77;;;27.10;71.30;;;;;;5083628;27;87240;-56
2023/10/03 04:11:32;;;;;;;6.43;3.33;;;27.20;71.40;;;;;;5063210;27;88546;-56
2023/10/03 04:14:04;;;;;;;6.33;3.23;;;27.10;71.30;;;;;;5062432;27;87823;-56
2023/10/03 04:16:38;;;;;;;3.33;2.53;;;27.20;72.30;;;;;;5082226;27;88634;-56
2023/10/03 04:19:10;;;;;;;8.87;2.70;;;27.10;71.30;;;;;;5084234;27;87473;-56
2023/10/03 04:21:40;;;;;;;4.13;3.20;;;27.10;71.30;;;;;;5083860;27;88771;-56
2023/10/03 04:24:11;;;;;;;4.63;2.50;;;27.10;71.30;;;;;;5084123;27;87967;-56
2023/10/03 04:26:42;;;;;;;7.33;3.23;;;27.10;71.30;;;;;;5083452;27;88853;-56
2023/10/03 04:29:13;;;;;;;3.60;2.23;;;27.10;71.30;;;;;;5083848;27;87512;-56
2023/10/03 04:31:42;;;;;;;3.73;2.00;;;27.10;72.10;;;;;;5083677;27;88543;-56
2023/10/03 04:34:16;;;;;;;4.00;2.53;;;27.10;71.30;;;;;;5083739;27;87973;-56
2023/10/03 04:36:45;;;;;;;5.10;2.40;;;27.10;71.30;;;;;;5083372;27;87813;-56
2023/10/03 04:39:13;;;;;;;5.73;2.67;;;27.10;71.30;;;;;;5083846;27;87646;-56
2023/10/03 04:41:43;;;;;;;5.33;2.67;;;27.10;71.30;;;;;;5083484;27;89432;-56
2023/10/03 04:44:15;;;;;;;6.23;3.07;;;27.10;71.30;;;;;;5083453;27;87886;-56
2023/10/03 04:46:44;;;;;;;4.50;2.23;;;27.10;71.30;;;;;;5082180;27;87729;-56
2023/10/03 04:49:13;;;;;;;5.13;2.70;;;27.10;71.30;;;;;;5083084;27;87315;-56
2023/10/03 04:51:45;;;;;;;8.97;3.27;;;27.00;71.30;;;;;;5082934;27;88760;-56
2023/10/03 04:54:16;;;;;;;4.73;1.77;;;27.10;71.30;;;;;;5082845;27;89099;-56
2023/10/03 04:56:44;;;;;;;2.40;1.83;;;27.00;71.30;;;;;;5083794;27;87546;-56
2023/10/03 04:59:13;;;;;;;6.87;2.17;;;27.00;72.00;;;;;;5083528;27;87641;-56
2023/10/03 05:01:41;;;;;;;7.80;2.63;;;27.00;71.20;;;;;;5082804;27;88491;-56
2023/10/03 05:04:12;;;;;;;3.13;2.10;;;27.00;71.10;;;;;;5083032;27;88795;-56
2023/10/03 05:06:42;;;;;;;4.70;1.70;;;27.00;71.20;;;;;;5083157;27;88672;-56
2023/10/03 05:09:12;;;;;;;4.93;2.17;;;27.00;71.20;;;;;;5083460;27;87581;-56
2023/10/03 05:11:41;;;;;;;6.77;2.70;;;27.00;71.20;;;;;;5082556;27;88574;-55
2023/10/03 05:14:12;;;;;;;3.53;1.80;;;27.10;71.30;;;;;;5082915;27;89064;-56
2023/10/03 05:16:40;;;;;;;3.03;1.40;;;27.00;71.30;;;;;;5082675;27;87391;-56
2023/10/03 05:19:09;;;;;;;4.73;2.37;;;27.00;71.30;;;;;;5082782;27;87303;-56
2023/10/03 05:21:38;;;;;;;3.00;1.77;;;27.00;71.10;;;;;;5082946;27;88690;-56
2023/10/03 05:24:11;;;;;;;3.40;1.87;;;27.00;71.30;;;;;;5083116;27;88036;-58
2023/10/03 05:26:39;;;;;;;4.80;2.20;;;27.00;71.30;;;;;;5082937;27;87916;-58
2023/10/03 05:29:07;;;;;;;2.80;1.53;;;27.00;71.30;;;;;;5082313;27;88517;-56
2023/10/03 05:31:37;;;;;;;4.23;1.90;;;27.00;71.30;;;;;;5079402;27;89669;-58
2023/10/03 05:34:06;;;;;;;3.53;1.93;;;27.00;71.30;;;;;;5082348;27;89157;-58
2023/10/03 05:36:34;;;;;;;2.37;1.57;;;27.10;71.40;;;;;;5082552;27;87787;-58
2023/10/03 05:39:03;;;;;;;5.57;2.50;;;27.10;71.30;;;;;;5082852;27;87653;-58
2023/10/03 05:41:33;;;;;;;4.80;1.93;;;27.10;71.30;;;;;;5081561;27;89594;-57
2023/10/03 05:44:01;;;;;;;3.37;1.97;;;27.10;71.30;;;;;;5082590;27;87451;-57
2023/10/03 05:46:32;;;;;;;3.83;1.93;;;26.90;71.10;;;;;;5082054;27;87933;-58
2023/10/03 05:49:00;;;;;;;4.10;2.20;;;27.20;71.30;;;;;;5082697;27;87695;-57
2023/10/03 05:51:28;;;;;;;4.03;2.07;;;27.20;71.30;;;;;;5081914;27;89809;-57
2023/10/03 05:53:56;;;;;;;2.93;1.97;;;27.20;71.30;;;;;;5081245;27;88957;-57
2023/10/03 05:56:24;;;;;;;2.00;1.80;;;27.20;71.30;;;;;;5082102;27;87610;-57
2023/10/03 05:58:54;;;;;;;3.20;2.10;;;27.20;71.30;;;;;;5082549;27;87646;-57
2023/10/03 06:01:22;;;;;;;3.77;2.20;;;27.20;71.40;;;;;;5080655;27;88579;-57
2023/10/03 06:03:50;;;;;;;4.67;2.03;;;27.20;71.30;;;;;;5081751;27;88024;-57
2023/10/03 06:06:18;;;;;;;3.00;1.80;;;27.30;71.50;;;;;;5081687;27;88792;-57
2023/10/03 06:08:49;;;;;;;2.77;1.70;;;27.20;71.50;;;;;;5065494;27;87624;-57
2023/10/03 06:11:17;;;;;;;2.97;1.50;;;27.20;71.50;;;;;;5081225;27;89537;-57
2023/10/03 06:13:45;;;;;;;1.83;1.30;;;27.20;71.50;;;;;;5082101;27;88035;-57
2023/10/03 06:16:15;;;;;;;3.33;1.87;;;27.30;71.60;;;;;;5082332;27;87720;-58
2023/10/03 06:18:44;;;;;;;3.43;1.97;;;27.20;71.50;;;;;;5081247;27;88065;-57
2023/10/03 06:21:12;;;;;;;3.80;1.83;;;27.30;71.60;;;;;;5081294;27;87403;-57
2023/10/03 06:23:41;;;;;;;3.03;1.67;;;27.30;71.60;;;;;;5081856;27;87259;-57
2023/10/03 06:26:09;;;;;;;3.80;1.90;;;27.30;71.70;;;;;;5081376;27;87338;-57
2023/10/03 06:28:37;;;;;;;3.13;1.57;;;27.30;71.60;;;;;;5081905;27;87649;-57
2023/10/03 06:31:05;;;;;;;5.07;1.90;;;27.30;71.70;;;;;;5081574;27;87961;-57
2023/10/03 06:33:35;;;;;;;3.17;1.43;;;27.30;71.70;;;;;;5068672;27;88348;-57
2023/10/03 06:36:06;;;;;;;2.57;1.30;;;27.30;71.80;;;;;;5072625;27;89280;-57
2023/10/03 06:38:34;;;;;;;2.73;1.70;;;27.30;71.70;;;;;;5081558;27;87555;-57
2023/10/03 06:41:03;;;;;;;4.60;1.70;;;27.30;71.80;;;;;;5081422;27;89603;-57
2023/10/03 06:43:32;;;;;;;3.50;1.67;;;27.30;71.80;;;;;;5081266;27;89088;-57
2023/10/03 06:46:00;;;;;;;2.97;1.53;;;27.30;71.90;;;;;;5080775;27;89825;-57
2023/10/03 06:48:28;;;;;;;3.00;1.77;;;27.30;71.90;;;;;;5081548;27;87740;-57
2023/10/03 06:51:03;;;;;;;2.67;1.50;;;27.30;71.90;;;;;;5081293;27;89594;-57
2023/10/03 06:53:32;;;;;;;3.40;1.23;;;27.30;71.90;;;;;;5081195;27;88056;-57
2023/10/03 06:56:01;;;;;;;2.10;1.63;;;27.30;71.90;;;;;;5080879;27;88858;-57
2023/10/03 06:58:29;;;;;;;2.43;1.60;;;27.30;72.80;;;;;;5081486;27;87626;-57
2023/10/03 07:00:57;;;;;;;3.70;1.47;;;27.30;71.90;;;;;;5081322;27;88954;-57
2023/10/03 07:03:26;;;;;;;4.37;1.80;;;27.30;72.10;;;;;;5081415;27;88781;-58
2023/10/03 07:05:54;;;;;;;3.67;1.50;;;27.30;71.90;;;;;;5081612;27;87681;-57
2023/10/03 07:08:25;;;;;;;4.20;1.80;;;27.30;72.90;;;;;;5080469;27;87884;-57
2023/10/03 07:10:53;;;;;;;3.63;1.60;;;27.30;72.00;;;;;;5081155;27;89712;-58
2023/10/03 07:13:21;;;;;;;3.63;1.40;;;27.30;71.90;;;;;;5083132;27;88062;-58
2023/10/03 07:15:53;;;;;;;2.97;1.23;;;27.30;71.90;;;;;;5084949;27;88843;-57
2023/10/03 07:18:22;;;;;;;4.67;0.87;;;27.30;71.90;;;;;;5085346;27;87718;-58
2023/10/03 07:20:51;;;;;;;1.73;1.10;;;27.30;71.90;;;;;;5084385;27;88614;-57
2023/10/03 07:23:19;;;;;;;6.80;1.73;;;27.30;72.00;;;;;;5084145;27;88024;-57
2023/10/03 07:25:49;;;;;;;1.33;1.10;;;27.40;72.10;;;;;;5084940;27;87364;-58
2023/10/03 07:28:17;;;;;;;1.77;1.07;;;27.40;72.20;;;;;;5084512;27;87657;-57
2023/10/03 07:30:45;;;;;;;1.47;0.90;;;27.40;72.20;;;;;;5084520;27;89579;-57
2023/10/03 07:33:14;;;;;;;4.00;2.07;;;27.40;72.10;;;;;;5083835;27;89022;-58
2023/10/03 07:35:44;;;;;;;1.47;1.33;;;27.40;72.00;;;;;;5084365;27;88795;-58
2023/10/03 07:38:13;;;;;;;2.50;1.27;;;27.40;72.10;;;;;;5084001;27;88305;-58
2023/10/03 07:40:44;;;;;;;3.47;1.10;;;27.40;72.20;;;;;;5084352;27;89545;-55
2023/10/03 07:43:13;;;;;;;2.70;1.10;;;27.40;72.20;;;;;;5084463;27;88026;-55
2023/10/03 07:45:42;;;;;;;1.93;1.23;;;27.40;72.20;;;;;;5084210;27;87730;-54
2023/10/03 07:48:12;;;;;;;2.13;1.27;;;27.40;72.20;;;;;;5084452;27;87479;-56
2023/10/03 07:50:43;;;;;;;1.43;0.90;;;27.40;72.50;;;;;;5083959;27;88561;-55
2023/10/03 07:53:12;;;;;;;0.90;0.80;;;27.40;72.10;;;;;;5083923;27;89061;-55
2023/10/03 07:55:41;;;;;;;2.63;1.00;;;27.40;72.10;;;;;;5084533;27;87893;-55
2023/10/03 07:58:13;;;;;;;3.27;1.60;;;27.40;72.00;;;;;;5083752;27;87933;-55
2023/10/03 08:00:44;;;;;;;1.33;0.80;;;27.50;72.00;;;;;;5084352;27;88235;-55
2023/10/03 08:03:13;;;;;;;3.30;0.80;;;27.40;72.00;;;;;;5075295;27;88226;-57
2023/10/03 08:05:41;;;;;;;1.10;0.50;;;27.40;71.90;;;;;;5072500;27;87795;-55
2023/10/03 08:08:09;;;;;;;1.70;0.83;;;27.40;71.90;;;;;;5081526;27;87649;-56
2023/10/03 08:10:37;;;;;;;1.13;0.70;;;27.40;71.90;;;;;;5077635;27;88593;-56
2023/10/03 08:13:07;;;;;;;0.70;0.60;;;27.40;71.90;;;;;;5082053;27;90965;-56
2023/10/03 08:15:35;;;;;;;0.70;0.40;;;27.30;71.90;;;;;;5083591;27;87688;-56
2023/10/03 08:18:05;;;;;;;0.97;0.60;;;27.30;71.80;;;;;;5067661;27;87616;-56
2023/10/03 08:20:36;;;;;;;3.63;1.10;;;27.30;71.70;;;;;;5075357;27;88528;-56
2023/10/03 08:23:05;;;;;;;2.13;0.70;;;27.20;71.40;;;;;;5081236;27;89123;-56
2023/10/03 08:25:35;;;;;;;1.47;1.10;;;27.10;71.40;;;;;;5065690;27;88730;-56
2023/10/03 08:28:09;;;;;;;10.47;0.87;;;27.20;72.30;;;;;;5067004;27;87673;-56
2023/10/03 08:30:38;;;;;;;1.10;0.50;;;27.10;71.30;;;;;;5074704;27;88485;-57
2023/10/03 08:33:08;;;;;;;1.27;0.60;;;27.10;71.30;;;;;;5080781;27;88028;-56
2023/10/03 08:35:37;;;;;;;1.43;0.80;;;27.10;71.30;;;;;;5083114;27;87727;-56
2023/10/03 08:38:06;;;;;;;2.17;0.70;;;27.10;71.00;;;;;;5067796;27;87686;-56
2023/10/03 08:40:39;;;;;;;1.50;0.70;;;27.10;71.00;;;;;;5074757;27;88531;-56
2023/10/03 08:43:11;;;;;;;1.20;0.67;;;27.00;71.00;;;;;;5076066;27;87672;-56
2023/10/03 08:45:40;;;;;;;1.30;0.50;;;27.00;70.70;;;;;;5065773;27;87928;-56
2023/10/03 08:48:10;;;;;;;2.60;0.67;;;27.10;70.70;;;;;;5079606;27;87904;-56
2023/10/03 08:50:41;;;;;;;1.27;0.97;;;27.10;70.70;;;;;;5083264;27;88751;-57
2023/10/03 08:53:26;;;;;;;2.13;0.93;;;27.00;70.70;;;;;;5082984;27;89179;-56
2023/10/03 08:55:57;;;;;;;3.23;0.70;;;27.00;71.30;;;;;;5066090;27;88277;-56
2023/10/03 08:58:26;;;;;;;1.53;1.07;;;27.00;70.50;;;;;;5081249;27;87497;-56
2023/10/03 09:00:59;;;;;;;2.80;0.80;;;27.00;70.20;;;;;;5071540;27;89718;-56
2023/10/03 09:03:46;;;;;;;6.50;0.90;;;26.90;70.20;;;;;;5078104;27;89032;-56
2023/10/03 09:06:19;;;;;;;2.50;1.27;;;27.00;70.20;;;;;;5073150;27;87761;-56
2023/10/03 09:08:51;;;;;;;1.20;0.60;;;27.00;70.10;;;;;;5072909;27;87503;-56
2023/10/03 09:11:20;;;;;;;1.13;0.60;;;26.90;70.00;;;;;;5077052;27;89704;-56
2023/10/03 09:13:49;;;;;;;3.10;0.60;;;26.90;69.90;;;;;;5064950;27;88946;-57
2023/10/03 09:16:19;;;;;;;0.80;0.80;;;26.90;69.90;;;;;;5076891;27;88680;-57
2023/10/03 09:18:56;;;;;;;2.27;0.67;;;26.90;69.80;;;;;;5072505;27;87584;-57
2023/10/03 09:21:27;;;;;;;0.50;0.40;;;26.80;69.70;;;;;;5067308;27;88529;-56
2023/10/03 09:24:09;;;;;;;2.47;0.50;;;26.80;69.60;;;;;;5081716;27;88994;-56
2023/10/03 09:26:51;;;;;;;1.77;0.90;;;26.80;69.60;;;;;;5082644;27;88781;-56
2023/10/03 09:29:29;;;;;;;1.30;0.80;;;26.60;69.40;;;;;;5068172;27;87537;-56
2023/10/03 09:32:07;;;;;;;1.70;0.60;;;26.80;69.60;;;;;;5079221;27;88516;-56
2023/10/03 09:34:40;;;;;;;1.13;0.57;;;26.70;69.40;;;;;;5070156;27;87240;-56
2023/10/03 09:37:09;;;;;;;1.53;0.50;;;26.70;69.40;;;;;;5068733;27;87711;-56
2023/10/03 09:39:48;;;;;;;1.80;0.70;;;26.70;69.40;;;;;;5078114;27;88833;-56
2023/10/03 09:42:18;;;;;;;0.80;0.60;;;26.70;69.30;;;;;;5082294;27;88546;-56
2023/10/03 09:44:48;;;;;;;0.47;0.40;;;26.70;69.30;;;;;;5071835;27;88146;-56
2023/10/03 09:47:18;;;;;;;0.27;0.27;;;26.70;69.30;;;;;;5075277;27;88816;-56
2023/10/03 09:49:48;;;;;;;1.50;0.93;;;26.70;69.10;;;;;;5065551;27;88039;-56
2023/10/03 09:52:22;;;;;;;0.90;0.53;;;26.70;69.20;;;;;;5076113;27;88771;-56
2023/10/03 09:54:53;;;;;;;1.20;0.60;;;26.70;69.20;;;;;;5072299;27;88039;-56
2023/10/03 09:57:21;;;;;;;0.70;0.60;;;26.70;69.10;;;;;;5078764;27;88794;-55
2023/10/03 09:59:50;;;;;;;0.90;0.63;;;26.70;69.20;;;;;;5078319;27;87861;-55
2023/10/03 10:02:30;;;;;;;1.43;0.57;;;26.70;69.20;;;;;;5063365;27;88497;-55
2023/10/03 10:05:03;;;;;;;1.63;0.80;;;26.70;69.10;;;;;;5072816;27;88773;-55
2023/10/03 10:07:34;;;;;;;2.40;0.80;;;26.70;69.10;;;;;;5065558;27;88682;-55
2023/10/03 10:10:11;;;;;;;0.53;0.53;;;26.60;68.90;;;;;;5061470;27;87660;-55
2023/10/03 10:12:59;;;;;;;1.53;0.77;;;26.70;69.10;;;;;;5070716;27;87856;-55
2023/10/03 10:15:29;;;;;;;0.70;0.57;;;26.70;69.00;;;;;;5080817;27;88048;-56
2023/10/03 10:17:57;;;;;;;1.37;0.53;;;26.70;69.10;;;;;;5078460;27;87410;-55
2023/10/03 10:20:37;;;;;;;1.50;0.53;;;26.70;69.00;;;;;;5068661;27;87631;-55
2023/10/03 10:23:16;;;;;;;0.57;0.40;;;26.70;69.00;;;;;;5069082;27;88547;-56
2023/10/03 10:25:51;;;;;;;1.97;0.60;;;26.60;68.90;;;;;;5078056;27;87678;-55
2023/10/03 10:28:21;;;;;;;1.27;0.73;;;26.60;68.70;;;;;;5067634;27;88857;-55
2023/10/03 10:31:21;;;;;;;1.73;0.50;;;26.60;68.80;;;;;;5077499;27;87732;-56
2023/10/03 10:33:57;;;;;;;1.93;0.60;;;26.70;69.00;;;;;;5081210;27;88507;-55
2023/10/03 10:36:32;;;;;;;2.10;0.53;;;26.60;68.60;;;;;;5074115;27;89256;-55
2023/10/03 10:39:01;;;;;;;1.70;0.50;;;26.60;68.60;;;;;;5072947;27;88776;-55
2023/10/03 10:41:32;;;;;;;1.03;0.47;;;26.60;68.70;;;;;;5065001;27;87641;-55
2023/10/03 10:44:13;;;;;;;2.97;0.80;;;26.60;68.70;;;;;;5080145;27;88654;-55
2023/10/03 10:46:44;;;;;;;2.47;0.40;;;26.50;68.60;;;;;;5081215;27;87491;-55
2023/10/03 10:49:51;;;;;;;0.73;0.50;;;26.60;68.60;;;;;;5081822;27;87534;-55
2023/10/03 10:52:52;;;;;;;0.63;0.43;;;26.60;68.60;;;;;;5081901;27;87637;-55
2023/10/03 10:55:20;;;;;;;0.90;0.30;;;26.50;68.50;;;;;;5081436;27;88383;-55
2023/10/03 10:57:49;;;;;;;1.33;0.67;;;26.50;68.40;;;;;;5081222;27;88786;-55
2023/10/03 11:00:21;;;;;;;0.70;0.60;;;26.50;68.60;;;;;;5081304;27;89717;-56
2023/10/03 11:02:49;;;;;;;4.07;0.90;;;26.50;68.40;;;;;;5081972;27;87518;-54
2023/10/03 11:05:18;;;;;;;0.93;0.60;;;26.50;68.40;;;;;;5081340;27;89651;-55
2023/10/03 11:07:49;;;;;;;0.60;0.30;;;26.50;69.30;;;;;;5081496;27;88108;-53
2023/10/03 11:10:19;;;;;;;0.77;0.50;;;26.50;69.30;;;;;;5071489;27;88848;-55
2023/10/03 11:13:07;;;;;;;6.47;1.20;;;26.50;68.40;;;;;;5066726;27;87367;-55
2023/10/03 11:15:36;;;;;;;1.37;0.60;;;26.50;68.30;;;;;;5071809;27;88508;-55
2023/10/03 11:18:04;;;;;;;2.13;1.30;;;26.50;68.30;;;;;;5060604;27;88058;-56
2023/10/03 11:20:33;;;;;;;4.10;0.93;;;26.50;68.20;;;;;;5062763;27;87729;-55
2023/10/03 11:23:01;;;;;;;3.30;0.77;;;26.50;69.10;;;;;;5080916;27;87771;-54
2023/10/03 11:25:30;;;;;;;1.93;0.77;;;26.50;68.10;;;;;;5081264;27;89708;-55
2023/10/03 11:28:06;;;;;;;2.37;1.03;;;26.50;68.20;;;;;;5081288;27;87950;-55
2023/10/03 11:30:34;;;;;;;2.93;0.90;;;26.50;69.10;;;;;;5081116;27;87356;-56
2023/10/03 11:33:02;;;;;;;5.53;1.10;;;26.50;68.20;;;;;;5067514;27;89504;-55
2023/10/03 11:35:31;;;;;;;4.10;1.10;;;26.60;68.20;;;;;;5080712;27;89824;-55
2023/10/03 11:38:06;;;;;;;1.50;0.90;;;26.60;68.20;;;;;;5070425;27;88065;-55
2023/10/03 11:40:36;;;;;;;3.90;1.30;;;26.60;68.10;;;;;;5061155;27;87312;-55
2023/10/03 11:43:08;;;;;;;1.07;0.63;;;26.60;68.10;;;;;;5075543;27;87720;-54
2023/10/03 11:45:36;;;;;;;3.57;0.70;;;26.60;68.10;;;;;;5080324;27;88391;-55
2023/10/03 11:48:07;;;;;;;2.17;0.67;;;26.60;68.10;;;;;;5080137;27;88739;-55
2023/10/03 11:50:37;;;;;;;2.93;0.70;;;26.40;68.10;;;;;;5066614;27;89945;-54
2023/10/03 11:53:08;;;;;;;2.57;0.70;;;26.60;67.90;;;;;;5060053;27;87611;-55
2023/10/03 11:55:40;;;;;;;2.87;0.77;;;26.50;67.80;;;;;;5060013;27;90602;-55
2023/10/03 11:58:10;;;;;;;1.90;0.87;;;26.60;67.80;;;;;;5059947;27;88062;-55
2023/10/03 12:00:42;;;;;;;2.43;0.70;;;26.50;67.60;;;;;;5083922;27;87605;-55
2023/10/03 12:03:10;;;;;;;2.20;1.00;;;26.40;67.50;;;;;;5084320;27;87485;-54
2023/10/03 12:05:42;;;;;;;0.93;0.60;;;26.40;67.50;;;;;;5083995;27;88520;-55
2023/10/03 12:08:10;;;;;;;3.80;0.80;;;26.40;67.40;;;;;;5084216;27;88167;-55
2023/10/03 12:10:41;;;;;;;4.37;0.80;;;26.30;67.30;;;;;;5083903;27;87962;-53
2023/10/03 12:13:10;;;;;;;0.73;0.63;;;26.30;67.30;;;;;;5083424;27;87866;-54
2023/10/03 12:15:42;;;;;;;3.13;0.80;;;26.20;67.20;;;;;;5083574;27;89700;-55
2023/10/03 12:18:10;;;;;;;3.77;0.93;;;26.30;67.40;;;;;;5084002;27;88031;-55
2023/10/03 12:20:41;;;;;;;4.47;0.70;;;26.30;67.20;;;;;;5083712;27;87745;-55
2023/10/03 12:23:09;;;;;;;1.03;0.80;;;26.30;67.10;;;;;;5083866;27;87464;-55
2023/10/03 12:25:38;;;;;;;1.80;0.80;;;26.30;67.10;;;;;;5083498;27;89769;-54
2023/10/03 12:28:07;;;;;;;3.53;0.77;;;26.30;67.10;;;;;;5071842;27;89066;-54
2023/10/03 12:30:35;;;;;;;1.87;0.70;;;26.20;67.70;;;;;;5064446;27;87742;-54
2023/10/03 12:33:04;;;;;;;2.00;0.40;;;26.30;67.20;;;;;;5080906;27;87999;-55
2023/10/03 12:35:34;;;;;;;4.23;0.60;;;26.30;67.10;;;;;;5082969;27;89701;-53
2023/10/03 12:38:03;;;;;;;1.00;0.80;;;26.30;67.10;;;;;;5082318;27;90632;-54
2023/10/03 12:40:31;;;;;;;1.03;0.40;;;26.30;67.10;;;;;;5069755;27;88924;-53
2023/10/03 12:42:59;;;;;;;1.10;0.90;;;26.30;67.10;;;;;;5079495;27;87684;-55
2023/10/03 12:45:29;;;;;;;3.47;0.77;;;26.30;67.80;;;;;;5066748;27;89655;-54
2023/10/03 12:47:58;;;;;;;3.60;1.17;;;26.40;67.10;;;;;;5075567;27;88163;-54
2023/10/03 12:50:27;;;;;;;3.13;1.03;;;26.40;67.10;;;;;;5063035;27;87684;-55
2023/10/03 12:52:57;;;;;;;0.50;0.50;;;26.40;67.00;;;;;;5062959;27;87589;-55
2023/10/03 12:55:26;;;;;;;3.53;0.63;;;26.40;66.90;;;;;;5062892;27;87442;-55
2023/10/03 12:57:56;;;;;;;0.70;0.50;;;26.40;66.90;;;;;;5062779;27;88248;-55
2023/10/03 13:00:24;;;;;;;1.03;0.60;;;26.40;66.80;;;;;;5062849;27;87837;-55
2023/10/03 13:02:56;;;;;;;0.60;0.50;;;26.40;66.80;;;;;;5062649;27;87774;-55